北京 の空港の天気 - METARとTAF

北京首都国際空港 ( ZBAA / PEK ) - 中国 北京市
飛行場実況気象(Metar)
観測時間10/16 01:00 CST (10/15 17:00 UTC)
風向・風速北 2m/s
視程10km以上
天気現象
なし
気温5℃
湿度93%
気圧1030hPa
METARZBAA 151700Z 35002MPS CAVOK 05/04 Q1030 NOSIG
過去の天気等 Google飛行場航空写真 Wunderground天気予報

過去48時間のMETAR

飛行場予報(TAF)
発表時間: 10/15 17:20 CST (10/15 09:20 UTC)
予報対象時間: 15日20時 CST ~ 16日20時 CST
風向・風速南 4m/s
視程6000m
なし
TAF ZBAA 150920Z 1512/1612 18004MPS 6000 NSC TX15/1607Z TN02/1522Z